Time;durP1;ratioP1;P1;durP2;ratioP2;P2;SDS_P1;SDS_P2;PMS_P1;PMS_P2;Temp;Humidity;BMP_temperature;BMP_pressure;BME280_temperature;BME280_humidity;BME280_pressure;Samples;Min_cycle;Max_cycle;Signal;HPM_P1;HPM_P2
2022/09/02 00:01:26;;;;;;;2.13;1.47;;;11.30;99.90;;;;;;5093796;28;20204;-72
2022/09/02 00:03:56;;;;;;;5.43;1.97;;;11.20;99.90;;;;;;5106936;28;20258;-72
2022/09/02 00:06:23;;;;;;;1.63;1.40;;;11.00;99.90;;;;;;5111918;28;20208;-71
2022/09/02 00:08:52;;;;;;;2.13;1.30;;;11.00;99.90;;;;;;5114463;28;20682;-71
2022/09/02 00:11:22;;;;;;;2.07;1.27;;;11.00;99.90;;;;;;5104253;28;20196;-72
2022/09/02 00:13:50;;;;;;;2.93;1.50;;;11.10;99.90;;;;;;5105060;28;20212;-71
2022/09/02 00:16:17;;;;;;;1.13;1.13;;;11.30;99.90;;;;;;5102952;28;20209;-72
2022/09/02 00:18:44;;;;;;;2.93;1.73;;;11.40;99.90;;;;;;5098261;28;20646;-72
2022/09/02 00:21:13;;;;;;;1.70;0.97;;;11.50;99.90;;;;;;5110212;28;20468;-71
2022/09/02 00:23:40;;;;;;;2.67;1.47;;;11.70;99.90;;;;;;5113027;28;20193;-71
2022/09/02 00:26:08;;;;;;;2.33;1.50;;;11.40;99.90;;;;;;5109529;28;20274;-72
2022/09/02 00:28:35;;;;;;;2.60;1.53;;;11.20;99.90;;;;;;5113039;28;20203;-72
2022/09/02 00:31:02;;;;;;;1.60;1.50;;;11.20;99.90;;;;;;5116041;27;20254;-71
2022/09/02 00:33:30;;;;;;;1.50;1.40;;;11.30;99.90;;;;;;5113981;28;20561;-72
2022/09/02 00:35:59;;;;;;;3.40;1.47;;;11.40;99.90;;;;;;5108651;28;20661;-71
2022/09/02 00:38:25;;;;;;;2.57;1.33;;;11.50;99.90;;;;;;5114108;28;20204;-72
2022/09/02 00:40:52;;;;;;;1.53;1.10;;;11.60;99.90;;;;;;5112481;28;20200;-72
2022/09/02 00:43:25;;;;;;;1.57;1.33;;;11.50;99.90;;;;;;5112914;28;20631;-72
2022/09/02 00:45:53;;;;;;;5.80;1.53;;;11.60;99.90;;;;;;5097799;28;20188;-72
2022/09/02 00:48:20;;;;;;;1.60;1.50;;;11.60;99.90;;;;;;5112526;28;20284;-72
2022/09/02 00:50:47;;;;;;;4.53;1.60;;;11.60;99.90;;;;;;5109777;28;20216;-72
2022/09/02 00:53:14;;;;;;;2.27;1.50;;;11.60;99.90;;;;;;5108469;27;20197;-71
2022/09/02 00:55:46;;;;;;;4.23;1.30;;;11.50;99.90;;;;;;5106681;27;20208;-71
2022/09/02 00:58:17;;;;;;;1.77;1.67;;;11.50;99.90;;;;;;5104688;28;20193;-73
2022/09/02 01:00:46;;;;;;;1.77;1.40;;;11.50;99.90;;;;;;5106663;27;20206;-72
2022/09/02 01:03:15;;;;;;;2.27;1.30;;;11.40;99.90;;;;;;5094424;28;20235;-71
2022/09/02 01:05:45;;;;;;;3.60;1.50;;;11.00;99.90;;;;;;5097310;28;20216;-72
2022/09/02 01:08:15;;;;;;;5.40;1.47;;;11.00;99.90;;;;;;5093334;28;20201;-72
2022/09/02 01:10:43;;;;;;;1.77;1.60;;;11.10;99.90;;;;;;5104127;28;20589;-71
2022/09/02 01:13:12;;;;;;;3.17;1.57;;;11.10;99.90;;;;;;5109405;28;20256;-71
2022/09/02 01:15:42;;;;;;;1.57;1.47;;;11.00;99.90;;;;;;5112105;28;20208;-71
2022/09/02 01:18:16;;;;;;;2.40;1.40;;;11.00;99.90;;;;;;5110063;28;20210;-71
2022/09/02 01:20:43;;;;;;;2.57;1.33;;;11.00;99.90;;;;;;5094373;28;20201;-71
2022/09/02 01:23:13;;;;;;;1.33;1.23;;;11.00;99.90;;;;;;5113345;28;20539;-72
2022/09/02 01:25:40;;;;;;;2.57;1.60;;;11.00;99.90;;;;;;5094431;28;20202;-71
2022/09/02 01:28:10;;;;;;;1.57;1.37;;;11.10;99.90;;;;;;5111793;28;20201;-72
2022/09/02 01:30:40;;;;;;;3.10;1.20;;;11.00;99.90;;;;;;5105101;28;20222;-70
2022/09/02 01:33:07;;;;;;;2.33;1.57;;;10.80;99.90;;;;;;5096101;28;20765;-70
2022/09/02 01:35:34;;;;;;;3.20;1.40;;;10.90;99.90;;;;;;5092737;28;20197;-70
2022/09/02 01:38:01;;;;;;;1.67;1.20;;;10.60;99.90;;;;;;5094439;28;20574;-70
2022/09/02 01:40:31;;;;;;;1.80;1.50;;;10.50;99.90;;;;;;5109321;27;20200;-70
2022/09/02 01:43:01;;;;;;;1.63;1.53;;;10.40;99.90;;;;;;5116277;27;20216;-70
2022/09/02 01:45:28;;;;;;;2.77;1.60;;;10.40;99.90;;;;;;5094900;28;20200;-70
2022/09/02 01:47:55;;;;;;;2.07;1.63;;;10.50;99.90;;;;;;5112521;28;20200;-70
2022/09/02 01:50:21;;;;;;;2.73;1.67;;;10.50;99.90;;;;;;5105796;28;20221;-69
2022/09/02 01:52:48;;;;;;;3.67;1.63;;;10.40;99.90;;;;;;5112215;28;20200;-70
2022/09/02 01:55:15;;;;;;;2.10;1.70;;;10.50;99.90;;;;;;5092095;28;20563;-70
2022/09/02 01:57:43;;;;;;;1.73;1.53;;;10.50;99.90;;;;;;5091583;28;20205;-70
2022/09/02 02:00:12;;;;;;;1.50;1.40;;;10.30;99.90;;;;;;5114443;27;20185;-70
2022/09/02 02:02:40;;;;;;;2.43;1.50;;;10.30;99.90;;;;;;5130501;27;20286;-70
2022/09/02 02:05:08;;;;;;;3.03;1.70;;;10.30;99.90;;;;;;5111283;27;20205;-70
2022/09/02 02:07:35;;;;;;;1.73;1.60;;;10.30;99.90;;;;;;5103520;28;20201;-70
2022/09/02 02:10:02;;;;;;;2.43;1.73;;;10.30;99.90;;;;;;5098693;28;20576;-70
2022/09/02 02:12:30;;;;;;;1.60;1.50;;;10.40;99.90;;;;;;5111647;28;20205;-70
2022/09/02 02:14:58;;;;;;;1.60;1.50;;;10.50;99.90;;;;;;5107353;28;20204;-70
2022/09/02 02:17:25;;;;;;;4.80;1.50;;;10.30;99.90;;;;;;5092658;28;20208;-70
2022/09/02 02:19:52;;;;;;;1.67;1.57;;;10.50;99.90;;;;;;5101671;28;20300;-69
2022/09/02 02:22:19;;;;;;;2.00;1.80;;;10.40;99.90;;;;;;5091413;28;20654;-70
2022/09/02 02:24:46;;;;;;;1.60;1.50;;;10.50;99.90;;;;;;5095422;28;20566;-70
2022/09/02 02:27:13;;;;;;;2.87;1.50;;;10.50;99.90;;;;;;5124676;28;20188;-70
2022/09/02 02:29:40;;;;;;;1.30;1.20;;;10.60;99.90;;;;;;5110465;28;20240;-70
2022/09/02 02:32:08;;;;;;;2.87;1.90;;;10.60;99.90;;;;;;5109424;28;20208;-70
2022/09/02 02:34:36;;;;;;;2.43;1.83;;;10.50;99.90;;;;;;5102437;28;20197;-70
2022/09/02 02:37:02;;;;;;;1.50;1.40;;;10.40;99.90;;;;;;5111934;28;20675;-70
2022/09/02 02:39:30;;;;;;;2.63;1.80;;;10.20;99.90;;;;;;5109679;28;20204;-70
2022/09/02 02:41:57;;;;;;;1.77;1.67;;;10.30;99.90;;;;;;5109663;28;20205;-70
2022/09/02 02:44:24;;;;;;;2.70;1.70;;;10.40;99.90;;;;;;5102124;28;20205;-70
2022/09/02 02:46:51;;;;;;;1.90;1.80;;;10.20;99.90;;;;;;5096874;28;20700;-70
2022/09/02 02:49:19;;;;;;;4.47;1.57;;;10.20;99.90;;;;;;5097455;28;20204;-69
2022/09/02 02:51:46;;;;;;;3.57;1.70;;;10.30;99.90;;;;;;5107348;28;20215;-70
2022/09/02 02:54:13;;;;;;;2.03;1.60;;;10.40;99.90;;;;;;5095282;28;20695;-70
2022/09/02 02:56:40;;;;;;;1.70;1.60;;;10.30;99.90;;;;;;5111919;28;20233;-70
2022/09/02 02:59:07;;;;;;;4.77;1.93;;;10.40;99.90;;;;;;5101366;28;20670;-70
2022/09/02 03:01:34;;;;;;;3.30;1.83;;;10.20;99.90;;;;;;5128284;28;20546;-70
2022/09/02 03:04:01;;;;;;;3.57;1.60;;;10.10;99.90;;;;;;5115562;28;20627;-70
2022/09/02 03:06:29;;;;;;;2.43;1.90;;;10.00;99.90;;;;;;5096496;28;20566;-70
2022/09/02 03:08:58;;;;;;;2.10;1.63;;;10.00;99.90;;;;;;5104203;28;20563;-69
2022/09/02 03:11:27;;;;;;;3.37;1.73;;;10.00;99.90;;;;;;5111415;28;20675;-69
2022/09/02 03:13:54;;;;;;;1.60;1.50;;;9.80;99.90;;;;;;5106679;28;20251;-69
2022/09/02 03:16:21;;;;;;;1.97;1.70;;;9.70;99.90;;;;;;5104290;28;20197;-69
2022/09/02 03:18:49;;;;;;;2.10;1.60;;;9.90;99.90;;;;;;5104234;28;20198;-69
2022/09/02 03:21:17;;;;;;;2.00;1.90;;;9.90;99.90;;;;;;5102330;28;20216;-69
2022/09/02 03:23:46;;;;;;;2.47;1.77;;;9.90;99.90;;;;;;5111142;27;20253;-69
2022/09/02 03:26:19;;;;;;;2.93;2.07;;;9.90;99.90;;;;;;5121113;27;20205;-70
2022/09/02 03:28:48;;;;;;;4.00;2.00;;;9.90;99.90;;;;;;5112061;28;20663;-69
2022/09/02 03:31:17;;;;;;;1.93;1.80;;;10.00;99.90;;;;;;5115199;28;20220;-69
2022/09/02 03:33:44;;;;;;;4.60;2.00;;;9.90;99.90;;;;;;5114258;27;20220;-70
2022/09/02 03:36:20;;;;;;;2.30;2.10;;;9.80;99.90;;;;;;5133852;27;20261;-69
2022/09/02 03:38:48;;;;;;;2.17;2.00;;;9.80;99.90;;;;;;5135481;27;20203;-69
2022/09/02 03:41:15;;;;;;;3.30;1.80;;;9.80;99.90;;;;;;5110374;27;20202;-70
2022/09/02 03:43:41;;;;;;;2.60;2.20;;;9.80;99.90;;;;;;5103877;28;20635;-70
2022/09/02 03:46:09;;;;;;;5.10;2.03;;;9.90;99.90;;;;;;5115513;28;20205;-70
2022/09/02 03:48:36;;;;;;;3.17;2.10;;;10.00;99.90;;;;;;5107859;28;20217;-69
2022/09/02 03:51:02;;;;;;;2.90;2.07;;;10.00;99.90;;;;;;5094920;28;20221;-70
2022/09/02 03:53:29;;;;;;;2.37;1.70;;;9.90;99.90;;;;;;5106436;28;20208;-70
2022/09/02 03:55:58;;;;;;;2.00;1.80;;;10.00;99.90;;;;;;5114459;28;20236;-69
2022/09/02 03:58:25;;;;;;;2.20;2.00;;;9.80;99.90;;;;;;5114107;28;20212;-70
2022/09/02 04:00:52;;;;;;;2.43;1.77;;;9.70;99.90;;;;;;5116961;27;20630;-69
2022/09/02 04:03:19;;;;;;;3.60;2.10;;;9.80;99.90;;;;;;5126813;27;20195;-70
2022/09/02 04:05:47;;;;;;;3.07;1.93;;;9.80;99.90;;;;;;5108590;27;20611;-70
2022/09/02 04:08:13;;;;;;;2.03;1.60;;;9.80;99.90;;;;;;5108235;28;20612;-69
2022/09/02 04:10:40;;;;;;;4.30;1.87;;;9.80;99.90;;;;;;5093614;28;20221;-70
2022/09/02 04:13:08;;;;;;;9.47;2.50;;;9.90;99.90;;;;;;5093105;28;20208;-69
2022/09/02 04:15:39;;;;;;;7.60;2.30;;;10.00;99.90;;;;;;5094916;28;20190;-70
2022/09/02 04:18:06;;;;;;;3.93;1.70;;;9.90;99.90;;;;;;5093819;28;20566;-70
2022/09/02 04:20:33;;;;;;;2.27;2.07;;;10.00;99.90;;;;;;5094599;28;20213;-69
2022/09/02 04:23:01;;;;;;;1.93;1.83;;;10.00;99.90;;;;;;5094167;28;20232;-70
2022/09/02 04:25:28;;;;;;;5.93;2.20;;;9.80;99.90;;;;;;5094057;28;20213;-70
2022/09/02 04:27:55;;;;;;;14.20;2.80;;;9.70;99.90;;;;;;5093806;28;20560;-70
2022/09/02 04:30:24;;;;;;;7.57;2.50;;;9.70;99.90;;;;;;5092812;28;20228;-69
2022/09/02 04:32:51;;;;;;;13.67;2.70;;;9.70;99.90;;;;;;5093522;28;20212;-69
2022/09/02 04:35:18;;;;;;;14.80;3.47;;;9.80;99.90;;;;;;5094254;28;20560;-69
2022/09/02 04:37:47;;;;;;;7.47;2.93;;;9.80;99.90;;;;;;5096708;28;20205;-69
2022/09/02 04:40:15;;;;;;;9.67;2.67;;;9.90;99.90;;;;;;5113824;28;20185;-69
2022/09/02 04:42:42;;;;;;;5.13;2.70;;;10.00;99.90;;;;;;5110187;28;20205;-69
2022/09/02 04:45:10;;;;;;;13.57;3.33;;;10.10;99.90;;;;;;5093505;28;20206;-70
2022/09/02 04:47:38;;;;;;;19.10;3.50;;;10.20;99.90;;;;;;5093093;28;20241;-69
2022/09/02 04:50:06;;;;;;;27.27;4.33;;;10.10;99.90;;;;;;5094857;28;20225;-69
2022/09/02 04:52:33;;;;;;;14.90;2.90;;;9.80;99.90;;;;;;5106904;28;20703;-69
2022/09/02 04:55:00;;;;;;;11.20;2.80;;;9.80;99.90;;;;;;5103837;28;20212;-69
2022/09/02 04:57:26;;;;;;;18.13;2.87;;;10.00;99.90;;;;;;5101747;28;20197;-69
2022/09/02 04:59:54;;;;;;;6.73;2.47;;;10.20;99.90;;;;;;5101138;28;20413;-69
2022/09/02 05:02:21;;;;;;;5.50;3.00;;;10.20;99.90;;;;;;5097775;28;20670;-69
2022/09/02 05:04:51;;;;;;;10.50;3.10;;;10.50;99.90;;;;;;5098400;28;20200;-69
2022/09/02 05:07:17;;;;;;;11.87;3.10;;;10.70;99.90;;;;;;5103917;28;20204;-69
2022/09/02 05:09:44;;;;;;;11.27;3.47;;;10.70;99.90;;;;;;5103571;28;20201;-69
2022/09/02 05:12:11;;;;;;;5.23;3.10;;;10.60;99.90;;;;;;5099188;28;20221;-69
2022/09/02 05:14:39;;;;;;;6.37;2.80;;;10.70;99.90;;;;;;5098326;28;20205;-69
2022/09/02 05:17:06;;;;;;;10.00;3.27;;;10.70;99.90;;;;;;5099835;28;20284;-69
2022/09/02 05:19:34;;;;;;;11.23;2.77;;;10.70;99.90;;;;;;5099330;27;20213;-70
2022/09/02 05:22:03;;;;;;;9.27;3.00;;;11.00;99.90;;;;;;5099274;28;20194;-69
2022/09/02 05:24:30;;;;;;;13.37;3.53;;;11.10;99.90;;;;;;5101533;28;20202;-69
2022/09/02 05:26:57;;;;;;;10.53;3.17;;;11.00;99.90;;;;;;5100408;28;20198;-69
2022/09/02 05:29:25;;;;;;;15.23;2.67;;;10.80;99.90;;;;;;5103297;28;20668;-69
2022/09/02 05:31:52;;;;;;;9.93;3.10;;;10.90;99.90;;;;;;5101165;27;20216;-69
2022/09/02 05:34:19;;;;;;;10.70;3.43;;;10.80;99.90;;;;;;5103406;28;20216;-69
2022/09/02 05:36:46;;;;;;;9.43;2.80;;;10.80;99.90;;;;;;5110359;28;20699;-69
2022/09/02 05:39:14;;;;;;;6.47;2.90;;;10.80;99.90;;;;;;5104968;28;20197;-69
2022/09/02 05:41:41;;;;;;;6.50;3.10;;;10.90;99.90;;;;;;5095932;28;20194;-69
2022/09/02 05:44:08;;;;;;;16.43;4.17;;;10.90;99.90;;;;;;5100993;27;20197;-69
2022/09/02 05:46:35;;;;;;;33.83;5.67;;;10.90;99.90;;;;;;5097565;28;20209;-70
2022/09/02 05:49:07;;;;;;;28.57;5.90;;;11.00;99.90;;;;;;5102736;27;20212;-69
2022/09/02 05:51:39;;;;;;;9.17;3.20;;;11.30;99.90;;;;;;5099551;28;20320;-69
2022/09/02 05:54:06;;;;;;;7.77;3.60;;;11.30;99.90;;;;;;5101703;28;20708;-69
2022/09/02 05:56:34;;;;;;;9.23;3.30;;;11.30;99.90;;;;;;5104139;28;20226;-69
2022/09/02 05:59:01;;;;;;;9.73;3.57;;;11.40;99.90;;;;;;5098186;28;20198;-69
2022/09/02 06:01:29;;;;;;;8.13;3.67;;;11.50;99.90;;;;;;5106093;28;20197;-69
2022/09/02 06:03:56;;;;;;;5.13;2.97;;;11.50;99.90;;;;;;5100018;28;20205;-69
2022/09/02 06:06:23;;;;;;;3.50;3.10;;;11.60;99.90;;;;;;5106723;27;20535;-69
2022/09/02 06:08:51;;;;;;;4.67;3.60;;;11.80;99.90;;;;;;5105116;28;20203;-69
2022/09/02 06:11:18;;;;;;;6.40;4.00;;;11.90;99.90;;;;;;5097396;28;20216;-69
2022/09/02 06:13:47;;;;;;;5.20;3.27;;;12.20;99.90;;;;;;5098396;28;20267;-69
2022/09/02 06:16:17;;;;;;;6.30;3.73;;;12.30;99.90;;;;;;5102479;28;20209;-69
2022/09/02 06:18:44;;;;;;;3.77;3.33;;;12.70;99.90;;;;;;5101895;28;20578;-69
2022/09/02 06:21:12;;;;;;;7.17;3.40;;;12.60;99.90;;;;;;5097227;28;20202;-69
2022/09/02 06:23:40;;;;;;;4.37;3.43;;;12.60;99.90;;;;;;5103030;28;20212;-69
2022/09/02 06:26:09;;;;;;;7.50;3.20;;;12.90;99.90;;;;;;5104017;28;20201;-69
2022/09/02 06:28:37;;;;;;;11.43;4.10;;;13.00;99.90;;;;;;5106641;28;20205;-69
2022/09/02 06:31:09;;;;;;;10.80;3.50;;;13.20;99.90;;;;;;5097734;28;20225;-69
2022/09/02 06:33:36;;;;;;;9.00;4.20;;;13.00;99.90;;;;;;5100983;28;20202;-69
2022/09/02 06:36:07;;;;;;;13.67;3.97;;;13.00;99.90;;;;;;5097490;28;20220;-69
2022/09/02 06:38:37;;;;;;;10.30;4.00;;;13.10;99.90;;;;;;5101156;28;20210;-69
2022/09/02 06:41:04;;;;;;;11.23;3.40;;;13.20;99.90;;;;;;5096646;28;20207;-69
2022/09/02 06:43:31;;;;;;;12.40;3.70;;;13.40;99.90;;;;;;5102985;28;20211;-69
2022/09/02 06:45:58;;;;;;;17.57;4.13;;;13.40;99.90;;;;;;5094469;28;20198;-69
2022/09/02 06:48:27;;;;;;;7.30;3.60;;;13.50;99.90;;;;;;5102810;28;20207;-69
2022/09/02 06:50:54;;;;;;;8.83;3.63;;;13.60;99.90;;;;;;5103459;28;20208;-69
2022/09/02 06:53:23;;;;;;;6.13;2.93;;;13.70;99.90;;;;;;5103266;28;20208;-69
2022/09/02 06:55:50;;;;;;;5.00;3.23;;;13.60;99.90;;;;;;5106558;28;20292;-69
2022/09/02 06:58:17;;;;;;;10.30;3.20;;;13.90;99.90;;;;;;5107554;28;20193;-69
2022/09/02 07:00:45;;;;;;;7.03;3.40;;;14.40;99.90;;;;;;5104992;28;20577;-69
2022/09/02 07:06:03;;;;;;;12.83;3.40;;;14.30;99.90;;;;;;5102292;28;20200;-69
2022/09/02 07:08:30;;;;;;;5.37;2.73;;;14.20;99.90;;;;;;5104961;27;20562;-69
2022/09/02 07:10:57;;;;;;;3.00;2.70;;;14.20;99.90;;;;;;5104576;27;20464;-69
2022/09/02 07:13:23;;;;;;;4.43;2.77;;;14.20;99.90;;;;;;5107830;27;20219;-69
2022/09/02 07:15:50;;;;;;;4.77;2.67;;;14.30;99.90;;;;;;5104709;28;20201;-69
2022/09/02 07:18:17;;;;;;;5.90;2.97;;;14.40;99.90;;;;;;5098161;28;20213;-69
2022/09/02 07:20:46;;;;;;;3.67;2.70;;;14.50;99.90;;;;;;5102548;28;20201;-69
2022/09/02 07:23:15;;;;;;;4.83;2.80;;;14.60;99.90;;;;;;5108492;28;20201;-69
2022/09/02 07:25:43;;;;;;;3.07;2.80;;;14.70;99.90;;;;;;5103060;27;20209;-70
2022/09/02 07:28:11;;;;;;;3.37;2.70;;;14.90;99.90;;;;;;5110707;28;20185;-70
2022/09/02 07:30:41;;;;;;;3.90;2.60;;;15.00;99.90;;;;;;5102795;28;20247;-68
2022/09/02 07:33:08;;;;;;;4.43;2.77;;;15.10;99.90;;;;;;5105544;28;20581;-68
2022/09/02 07:35:35;;;;;;;2.90;2.60;;;15.40;99.90;;;;;;5106963;28;20254;-69
2022/09/02 07:38:04;;;;;;;3.13;2.60;;;15.40;99.90;;;;;;5103087;28;20208;-69
2022/09/02 07:40:35;;;;;;;4.03;2.70;;;15.40;99.90;;;;;;5098975;28;20204;-68
2022/09/02 07:43:02;;;;;;;3.27;2.70;;;15.60;99.90;;;;;;5106324;28;20250;-68
2022/09/02 07:45:30;;;;;;;2.63;2.43;;;15.60;99.90;;;;;;5106069;27;20292;-70
2022/09/02 07:47:57;;;;;;;3.83;2.40;;;15.80;99.90;;;;;;5107655;28;20208;-69
2022/09/02 07:50:25;;;;;;;2.90;2.50;;;15.90;99.90;;;;;;5098695;28;20197;-70
2022/09/02 07:52:53;;;;;;;3.97;2.50;;;16.10;99.90;;;;;;5107254;28;20245;-68
2022/09/02 07:55:21;;;;;;;3.03;2.40;;;16.10;99.90;;;;;;5105835;28;20201;-68
2022/09/02 07:57:51;;;;;;;4.67;2.60;;;16.20;99.90;;;;;;5104476;28;20207;-68
2022/09/02 08:00:19;;;;;;;4.07;2.60;;;16.40;99.90;;;;;;5111119;27;20201;-68
2022/09/02 08:02:47;;;;;;;3.63;2.63;;;16.50;99.90;;;;;;5103650;27;20643;-69
2022/09/02 08:05:15;;;;;;;4.60;2.78;;;16.50;99.90;;;;;;5101805;28;20293;-70
2022/09/02 08:07:42;;;;;;;3.97;2.30;;;16.50;99.90;;;;;;5106954;27;20233;-68
2022/09/02 08:10:11;;;;;;;3.58;2.60;;;16.80;99.90;;;;;;5101430;28;20596;-68
2022/09/02 08:12:39;;;;;;;2.38;1.85;;;17.00;99.90;;;;;;5106790;27;20734;-70
2022/09/02 08:15:10;;;;;;;4.03;2.40;;;17.20;99.90;;;;;;5105038;28;20204;-71
2022/09/02 08:17:39;;;;;;;5.82;2.72;;;17.40;99.90;;;;;;5105596;28;20209;-71
2022/09/02 08:20:07;;;;;;;10.18;2.20;;;17.40;99.90;;;;;;5103529;28;20289;-71
2022/09/02 08:22:35;;;;;;;2.45;2.10;;;17.50;99.90;;;;;;5101922;28;20672;-71
2022/09/02 08:25:04;;;;;;;5.07;2.40;;;17.60;99.90;;;;;;5101381;28;20250;-71
2022/09/02 08:27:32;;;;;;;4.80;2.30;;;17.60;99.90;;;;;;5099137;28;20201;-71
2022/09/02 08:30:00;;;;;;;3.53;2.22;;;17.70;99.90;;;;;;5106102;28;20288;-71
2022/09/02 08:32:29;;;;;;;2.45;2.00;;;17.80;99.90;;;;;;5107179;28;20756;-69
2022/09/02 08:34:57;;;;;;;2.88;2.10;;;17.90;99.90;;;;;;5102209;28;20210;-70
2022/09/02 08:37:24;;;;;;;4.03;2.15;;;17.90;99.90;;;;;;5106494;28;20614;-70
2022/09/02 08:39:51;;;;;;;3.53;2.25;;;17.90;99.90;;;;;;5099151;28;20201;-69
2022/09/02 08:42:24;;;;;;;3.22;1.95;;;18.10;99.90;;;;;;5096845;28;20241;-69
2022/09/02 08:44:54;;;;;;;2.13;1.92;;;18.20;99.90;;;;;;5103148;27;20606;-69
2022/09/02 08:47:28;;;;;;;2.60;1.90;;;18.40;99.90;;;;;;5106963;28;20603;-69
2022/09/02 08:50:00;;;;;;;2.97;2.00;;;18.30;99.90;;;;;;5103101;28;20208;-69
2022/09/02 08:52:35;;;;;;;6.45;1.90;;;18.40;99.90;;;;;;5096364;28;20233;-69
2022/09/02 08:55:02;;;;;;;2.00;1.65;;;18.50;99.90;;;;;;5104453;28;20239;-70
2022/09/02 08:57:30;;;;;;;2.60;1.75;;;18.70;99.90;;;;;;5106847;28;20679;-70
2022/09/02 09:00:01;;;;;;;2.15;1.52;;;18.80;99.90;;;;;;5100851;28;20722;-71
2022/09/02 09:02:36;;;;;;;2.17;1.70;;;18.80;99.90;;;;;;5100467;28;20655;-68
2022/09/02 09:05:23;;;;;;;1.70;1.50;;;18.80;91.30;;;;;;5109127;27;20217;-69
2022/09/02 09:08:09;;;;;;;1.85;1.40;;;19.00;92.90;;;;;;5102410;28;20200;-69
2022/09/02 09:10:46;;;;;;;2.75;1.63;;;19.20;83.00;;;;;;5102209;28;20241;-69
2022/09/02 09:13:32;;;;;;;2.05;1.50;;;19.50;67.80;;;;;;5102200;27;20258;-70
2022/09/02 09:16:08;;;;;;;4.47;1.65;;;20.00;63.40;;;;;;5098193;28;20198;-70
2022/09/02 09:18:40;;;;;;;6.47;2.03;;;20.40;51.10;;;;;;5104429;28;20228;-69
2022/09/02 09:21:10;;;;;;;3.72;1.92;;;20.50;44.10;;;;;;5101244;27;20206;-69
2022/09/02 09:23:40;;;;;;;5.80;1.70;;;20.90;35.50;;;;;;5104214;28;20209;-70
2022/09/02 09:26:09;;;;;;;2.53;1.33;;;21.10;29.20;;;;;;5098053;28;20201;-70
2022/09/02 09:28:41;;;;;;;1.83;1.40;;;21.00;27.20;;;;;;5104589;28;20287;-70
2022/09/02 09:31:12;;;;;;;2.70;1.50;;;21.10;25.00;;;;;;5096223;27;20200;-70
2022/09/02 09:33:40;;;;;;;2.38;1.13;;;21.30;20.60;;;;;;5106913;27;20221;-70
2022/09/02 09:36:10;;;;;;;1.95;1.10;;;21.30;16.90;;;;;;5092843;28;20353;-69
2022/09/02 09:38:37;;;;;;;3.05;1.20;;;21.60;8.30;;;;;;5101770;28;20202;-69
2022/09/02 09:41:16;;;;;;;1.63;1.52;;;21.60;5.90;;;;;;5104386;28;20206;-69
2022/09/02 09:43:44;;;;;;;3.67;1.40;;;21.60;4.40;;;;;;5103878;27;20300;-69
2022/09/02 09:46:27;;;;;;;4.68;1.52;;;21.90;8.00;;;;;;5102536;28;20211;-68
2022/09/02 09:48:55;;;;;;;4.32;1.73;;;21.80;1.70;;;;;;5101916;27;20197;-68
2022/09/02 09:51:23;;;;;;;2.85;1.40;;;22.00;2.30;;;;;;5103048;28;20213;-69
2022/09/02 09:53:51;;;;;;;1.35;1.25;;;22.10;1.00;;;;;;5103231;28;20743;-68
2022/09/02 09:56:39;;;;;;;2.17;1.20;;;22.00;1.00;;;;;;5102006;28;20656;-68
2022/09/02 09:59:09;;;;;;;3.50;1.40;;;22.00;1.00;;;;;;5097112;28;20630;-69
2022/09/02 10:01:37;;;;;;;2.58;1.27;;;22.40;1.00;;;;;;5106010;28;20201;-69
2022/09/02 10:04:10;;;;;;;4.25;1.67;;;22.50;1.00;;;;;;5100913;28;20209;-71
2022/09/02 10:06:41;;;;;;;3.13;1.52;;;22.20;1.00;;;;;;5103681;27;20200;-71
2022/09/02 10:09:32;;;;;;;2.90;1.50;;;22.70;1.00;;;;;;5099842;28;20200;-72
2022/09/02 10:12:01;;;;;;;2.72;1.20;;;22.60;1.00;;;;;;5095084;28;20274;-69
2022/09/02 10:14:34;;;;;;;1.67;1.30;;;22.40;1.00;;;;;;5102775;28;20193;-69
2022/09/02 10:17:12;;;;;;;1.55;1.25;;;22.50;1.00;;;;;;5107750;28;20633;-69
2022/09/02 10:19:46;;;;;;;2.78;1.40;;;23.50;1.00;;;;;;5074344;28;20201;-69
2022/09/02 10:22:48;;;;;;;2.25;1.30;;;23.00;1.00;;;;;;5088543;28;20561;-70
2022/09/02 10:25:25;;;;;;;1.42;1.33;;;22.80;1.00;;;;;;5085506;28;20663;-69
2022/09/02 10:28:02;;;;;;;1.50;1.40;;;23.20;1.00;;;;;;5111071;28;20212;-71
2022/09/02 10:30:32;;;;;;;1.02;0.95;;;23.30;1.00;;;;;;5093081;28;20204;-70
2022/09/02 10:33:30;;;;;;;3.72;1.42;;;23.50;1.00;;;;;;5114154;28;20705;-69
2022/09/02 10:36:02;;;;;;;2.17;1.80;;;23.40;1.00;;;;;;5097597;27;20243;-69
2022/09/02 10:38:39;;;;;;;2.80;1.35;;;23.70;1.00;;;;;;5135018;27;20228;-70
2022/09/02 10:41:33;;;;;;;1.98;1.38;;;23.40;1.00;;;;;;5124464;27;20197;-71
2022/09/02 10:44:21;;;;;;;1.50;1.30;;;23.40;1.00;;;;;;5107469;28;20200;-69
2022/09/02 10:46:58;;;;;;;1.58;1.42;;;23.30;1.00;;;;;;5101468;28;20664;-69
2022/09/02 10:49:38;;;;;;;1.73;1.40;;;23.60;1.00;;;;;;5094139;28;20710;-69
2022/09/02 10:52:16;;;;;;;2.75;1.20;;;24.00;1.00;;;;;;5095714;28;20528;-68
2022/09/02 10:54:53;;;;;;;4.90;1.73;;;23.80;1.00;;;;;;5095772;28;20201;-69
2022/09/02 10:57:28;;;;;;;2.75;1.27;;;24.30;1.00;;;;;;5111424;28;20196;-69
2022/09/02 11:00:03;;;;;;;1.65;1.10;;;24.40;1.00;;;;;;5114168;28;20208;-69
2022/09/02 11:02:34;;;;;;;3.05;1.75;;;23.80;1.00;;;;;;5115247;28;20690;-69
2022/09/02 11:05:07;;;;;;;1.05;0.95;;;23.60;1.00;;;;;;5115832;28;20212;-69
2022/09/02 11:07:40;;;;;;;1.95;1.33;;;23.60;1.00;;;;;;5106124;28;20206;-69
2022/09/02 11:10:15;;;;;;;2.53;1.15;;;24.10;1.00;;;;;;5095379;28;20213;-69
2022/09/02 11:12:48;;;;;;;2.17;1.17;;;24.20;1.00;;;;;;5095887;28;20723;-69
2022/09/02 11:15:20;;;;;;;4.05;1.40;;;24.10;1.00;;;;;;5109073;27;20648;-69
2022/09/02 11:17:53;;;;;;;3.97;1.08;;;25.20;1.00;;;;;;5101021;28;20212;-69
2022/09/02 11:20:30;;;;;;;2.35;1.25;;;25.10;1.00;;;;;;5108728;28;20206;-69
2022/09/02 11:23:03;;;;;;;2.47;1.23;;;24.30;1.00;;;;;;5112022;28;20459;-69
2022/09/02 11:25:39;;;;;;;2.17;1.38;;;23.50;1.00;;;;;;5123972;27;20689;-69
2022/09/02 11:28:22;;;;;;;3.88;1.40;;;23.50;1.00;;;;;;5108834;27;20267;-69
2022/09/02 11:30:55;;;;;;;2.08;1.10;;;23.80;1.00;;;;;;5087450;28;20794;-69
2022/09/02 11:33:29;;;;;;;6.57;1.20;;;24.10;1.00;;;;;;5114352;28;20683;-69
2022/09/02 11:35:58;;;;;;;3.35;1.58;;;24.20;1.00;;;;;;5114860;28;20204;-69
2022/09/02 11:38:34;;;;;;;1.10;1.10;;;24.10;1.00;;;;;;5115590;28;20201;-69
2022/09/02 11:41:26;;;;;;;1.35;1.00;;;23.90;1.00;;;;;;5098395;28;20196;-69
2022/09/02 11:43:57;;;;;;;10.98;1.83;;;23.90;1.00;;;;;;5100004;28;20202;-69
2022/09/02 11:46:49;;;;;;;1.65;1.27;;;23.80;1.00;;;;;;5093937;28;20202;-69
2022/09/02 11:49:40;;;;;;;1.08;0.98;;;23.20;1.00;;;;;;5094632;28;20206;-69
2022/09/02 11:52:21;;;;;;;2.50;1.20;;;23.50;1.00;;;;;;5094519;28;20206;-69
2022/09/02 11:54:54;;;;;;;2.83;1.50;;;23.70;1.00;;;;;;5095123;28;20565;-69
2022/09/02 11:57:24;;;;;;;2.17;1.20;;;23.80;1.00;;;;;;5093402;28;20201;-69
2022/09/02 12:00:12;;;;;;;2.47;1.23;;;24.00;1.00;;;;;;5105258;28;20669;-68
2022/09/02 12:02:44;;;;;;;2.03;1.50;;;24.00;1.00;;;;;;5112734;28;20193;-69
2022/09/02 12:05:46;;;;;;;2.83;1.55;;;24.30;1.00;;;;;;5093539;28;20202;-69
2022/09/02 12:08:35;;;;;;;3.35;1.70;;;24.10;1.00;;;;;;5092884;28;20223;-69
2022/09/02 12:11:05;;;;;;;2.08;1.35;;;23.70;1.00;;;;;;5092902;28;20296;-69
2022/09/02 12:13:36;;;;;;;2.33;1.40;;;23.90;1.00;;;;;;5093629;28;20587;-67
2022/09/02 12:16:49;;;;;;;3.03;1.50;;;24.00;1.00;;;;;;5094517;28;20247;-67
2022/09/02 12:19:40;;;;;;;1.58;1.48;;;23.30;1.00;;;;;;5045360;28;20674;-67
2022/09/02 12:22:32;;;;;;;5.03;1.40;;;23.40;1.00;;;;;;5114556;28;20208;-67
2022/09/02 12:25:00;;;;;;;1.58;1.25;;;23.60;1.00;;;;;;5114279;28;20247;-67
2022/09/02 12:27:29;;;;;;;3.58;1.40;;;24.20;1.00;;;;;;5113649;28;20205;-67
2022/09/02 12:29:58;;;;;;;1.75;1.38;;;25.00;1.00;;;;;;5093568;28;20209;-67
2022/09/02 12:32:59;;;;;;;1.55;1.45;;;24.80;1.00;;;;;;5093716;28;20206;-67
2022/09/02 12:35:35;;;;;;;5.28;1.80;;;24.70;1.00;;;;;;5094310;28;20205;-67
2022/09/02 12:38:26;;;;;;;1.38;1.27;;;23.90;1.00;;;;;;5105205;27;20662;-67
2022/09/02 12:41:00;;;;;;;4.22;1.52;;;24.50;1.00;;;;;;5118422;27;20196;-67
2022/09/02 12:43:32;;;;;;;2.65;1.27;;;24.80;1.00;;;;;;5123920;27;20233;-67
2022/09/02 12:46:13;;;;;;;2.83;1.50;;;24.20;1.00;;;;;;5104023;28;20206;-67
2022/09/02 12:48:44;;;;;;;1.70;1.60;;;23.70;1.00;;;;;;5093779;28;20202;-67
2022/09/02 12:51:11;;;;;;;1.90;1.30;;;23.20;1.00;;;;;;5093376;28;20209;-67
2022/09/02 12:53:42;;;;;;;3.50;1.77;;;23.10;1.00;;;;;;5093749;28;20692;-68
2022/09/02 12:56:20;;;;;;;2.60;1.88;;;23.30;1.00;;;;;;5093191;28;20182;-69
2022/09/02 12:58:51;;;;;;;1.65;1.50;;;23.40;1.00;;;;;;5093702;28;20205;-69
2022/09/02 13:01:29;;;;;;;1.83;1.33;;;23.50;1.00;;;;;;5093066;28;20212;-69
2022/09/02 13:04:25;;;;;;;3.75;1.50;;;23.70;1.00;;;;;;5092905;28;20675;-69
2022/09/02 13:07:26;;;;;;;1.70;1.60;;;23.60;1.00;;;;;;5085118;28;20213;-69
2022/09/02 13:10:32;;;;;;;1.88;1.58;;;23.50;1.00;;;;;;5092959;28;20201;-69
2022/09/02 13:13:29;;;;;;;1.70;1.60;;;23.60;1.00;;;;;;5093473;28;20214;-69